Time;durP1;ratioP1;P1;durP2;ratioP2;P2;SDS_P1;SDS_P2;PMS_P1;PMS_P2;Temp;Humidity;BMP_temperature;BMP_pressure;BME280_temperature;BME280_humidity;BME280_pressure;Samples;Min_cycle;Max_cycle;Signal;HPM_P1;HPM_P2
2022/03/07 00:02:12;;;;;;;23.15;9.50;;;;;;;1.05;51.91;99454.66;4470734;32;33854;-80
2022/03/07 00:04:40;;;;;;;20.05;8.90;;;;;;;0.40;53.65;99457.81;4456543;32;36045;-80
2022/03/07 00:07:08;;;;;;;18.30;9.52;;;;;;;1.56;50.76;99456.09;4470649;32;34469;-79
2022/03/07 00:09:36;;;;;;;21.27;8.77;;;;;;;0.88;52.05;99456.72;4470662;32;33574;-80
2022/03/07 00:12:07;;;;;;;18.02;9.45;;;;;;;0.95;52.33;99463.75;4457065;32;33914;-80
2022/03/07 00:14:35;;;;;;;15.63;8.65;;;;;;;1.34;50.63;99455.47;4469959;32;35048;-80
2022/03/07 00:17:04;;;;;;;17.12;8.85;;;;;;;0.56;53.39;99462.63;4470601;32;35145;-79
2022/03/07 00:19:32;;;;;;;18.00;9.30;;;;;;;0.65;52.95;99458.59;4470732;32;33252;-80
2022/03/07 00:22:02;;;;;;;18.87;10.40;;;;;;;1.45;50.82;99458.38;4456999;32;34639;-80
2022/03/07 00:24:30;;;;;;;20.20;9.20;;;;;;;1.18;51.85;99463.56;4470481;32;34938;-79
2022/03/07 00:26:58;;;;;;;21.05;9.40;;;;;;;0.86;53.21;99472.03;4470629;32;35132;-80
2022/03/07 00:29:27;;;;;;;20.73;8.93;;;;;;;0.91;52.60;99465.38;4470480;32;33708;-79
2022/03/07 00:31:55;;;;;;;15.45;7.80;;;;;;;1.48;51.54;99468.69;4469912;32;33667;-80
2022/03/07 00:34:25;;;;;;;14.65;8.40;;;;;;;1.66;50.46;99469.22;4470466;32;34929;-80
2022/03/07 00:36:53;;;;;;;17.95;8.40;;;;;;;1.13;51.87;99476.28;4470472;32;34510;-79
2022/03/07 00:39:20;;;;;;;17.20;7.85;;;;;;;0.48;54.10;99479.44;4470460;32;33667;-80
2022/03/07 00:41:49;;;;;;;16.37;8.85;;;;;;;1.23;52.14;99472.28;4470321;32;33808;-79
2022/03/07 00:44:16;;;;;;;12.63;8.10;;;;;;;1.45;51.40;99463.50;4470613;32;35834;-79
2022/03/07 00:46:45;;;;;;;16.00;7.93;;;;;;;0.82;52.76;99472.78;4470454;32;34493;-80
2022/03/07 00:49:14;;;;;;;20.70;9.07;;;;;;;1.29;52.10;99463.06;4469686;32;33578;-80
2022/03/07 00:51:41;;;;;;;16.62;8.45;;;;;;;1.73;50.73;99469.38;4470424;32;33976;-79
2022/03/07 00:54:12;;;;;;;15.73;8.38;;;;;;;1.60;50.50;99456.19;4470428;32;34232;-79
2022/03/07 00:56:40;;;;;;;21.95;10.45;;;;;;;1.01;51.99;99452.84;4470344;32;35254;-79
2022/03/07 00:59:09;;;;;;;21.35;9.10;;;;;;;0.60;53.32;99452.44;4470231;32;33614;-79
2022/03/07 01:01:37;;;;;;;19.17;9.55;;;;;;;1.48;51.18;99453.31;4470429;32;33904;-80
2022/03/07 01:04:05;;;;;;;17.30;9.43;;;;;;;1.07;51.79;99460.69;4469767;32;35906;-79
2022/03/07 01:06:33;;;;;;;19.75;9.68;;;;;;;0.59;53.59;99453.28;4469637;32;35238;-79
2022/03/07 01:09:01;;;;;;;23.50;9.25;;;;;;;-0.09;55.82;99453.66;4456236;32;34517;-79
2022/03/07 01:11:30;;;;;;;24.08;9.50;;;;;;;0.94;53.12;99450.09;4470630;32;34042;-79
2022/03/07 01:13:58;;;;;;;22.50;9.52;;;;;;;1.67;50.70;99440.12;4470428;32;34937;-80
2022/03/07 01:16:26;;;;;;;17.50;9.30;;;;;;;0.94;52.08;99444.94;4470475;32;34478;-80
2022/03/07 01:18:54;;;;;;;21.25;10.77;;;;;;;0.65;53.24;99443.22;4470254;32;34443;-79
2022/03/07 01:21:22;;;;;;;18.87;8.95;;;;;;;1.02;52.14;99447.72;4470216;32;34723;-80
2022/03/07 01:23:50;;;;;;;20.05;8.85;;;;;;;0.67;53.34;99442.44;4455555;32;35251;-79
2022/03/07 01:26:20;;;;;;;18.27;9.25;;;;;;;0.79;53.32;99444.50;4470263;32;34617;-79
2022/03/07 01:28:48;;;;;;;18.58;8.85;;;;;;;0.96;52.29;99436.44;4470261;32;34506;-80
2022/03/07 01:31:16;;;;;;;19.55;10.10;;;;;;;0.94;52.54;99444.09;4456119;32;33756;-80
2022/03/07 01:33:44;;;;;;;21.20;9.98;;;;;;;0.44;53.87;99445.97;4470064;32;35182;-80
2022/03/07 01:36:13;;;;;;;21.08;9.02;;;;;;;0.43;53.72;99441.69;4469997;32;35090;-80
2022/03/07 01:38:41;;;;;;;18.05;9.20;;;;;;;0.69;53.11;99430.53;4469323;32;33886;-79
2022/03/07 01:41:09;;;;;;;15.52;8.82;;;;;;;1.10;51.52;99436.00;4454433;32;33833;-79
2022/03/07 01:43:37;;;;;;;13.57;7.57;;;;;;;0.39;54.04;99433.03;4460414;32;35039;-80
2022/03/07 01:46:05;;;;;;;20.10;9.55;;;;;;;1.12;51.60;99436.06;4456092;32;35275;-79
2022/03/07 01:48:33;;;;;;;19.25;9.45;;;;;;;1.33;51.11;99430.66;4469977;32;33353;-79
2022/03/07 01:51:02;;;;;;;19.70;9.68;;;;;;;0.89;52.55;99428.56;4469924;32;33961;-79
2022/03/07 01:53:31;;;;;;;20.83;10.13;;;;;;;0.74;52.17;99433.22;4470211;32;35856;-80
2022/03/07 01:56:00;;;;;;;21.92;9.82;;;;;;;1.13;51.63;99436.09;4469321;32;34489;-80
2022/03/07 01:58:33;;;;;;;18.83;8.70;;;;;;;0.99;52.54;99431.38;4469770;32;33723;-79
2022/03/07 02:01:02;;;;;;;18.75;9.50;;;;;;;1.65;50.55;99431.53;4469786;32;33859;-79
2022/03/07 02:03:32;;;;;;;21.40;9.85;;;;;;;1.02;51.59;99436.63;4469687;32;34840;-80
2022/03/07 02:06:01;;;;;;;24.52;10.73;;;;;;;1.04;52.20;99434.97;4469736;32;34581;-79
2022/03/07 02:08:29;;;;;;;20.05;9.57;;;;;;;0.52;52.97;99440.28;4469990;32;33631;-80
2022/03/07 02:10:57;;;;;;;23.05;10.32;;;;;;;0.63;53.78;99440.59;4469885;32;34813;-79
2022/03/07 02:13:25;;;;;;;21.80;8.73;;;;;;;1.00;52.07;99428.00;4468775;32;36135;-80
2022/03/07 02:15:55;;;;;;;22.65;10.25;;;;;;;0.51;53.40;99442.78;4469031;32;34483;-79
2022/03/07 02:18:24;;;;;;;19.08;9.10;;;;;;;0.67;53.47;99439.00;4469602;32;32572;-80
2022/03/07 02:21:03;;;;;;;18.35;9.98;;;;;;;0.14;54.75;99433.94;4469744;32;33748;-79
2022/03/07 02:23:31;;;;;;;23.27;10.13;;;;;;;0.84;53.05;99431.81;4469782;32;35121;-79
2022/03/07 02:25:59;;;;;;;18.15;10.18;;;;;;;0.58;53.24;99434.47;4469782;32;35338;-80
2022/03/07 02:28:28;;;;;;;21.83;9.48;;;;;;;0.47;53.96;99441.81;4469364;32;34542;-79
2022/03/07 02:30:56;;;;;;;18.12;9.25;;;;;;;0.14;54.85;99434.81;4455203;32;33715;-80
2022/03/07 02:33:25;;;;;;;19.83;9.65;;;;;;;0.26;54.91;99436.03;4469375;32;35944;-80
2022/03/07 02:35:53;;;;;;;18.77;9.98;;;;;;;0.31;55.08;99434.47;4469441;32;34419;-80
2022/03/07 02:38:21;;;;;;;20.35;9.38;;;;;;;-0.01;55.38;99427.50;4469227;32;33654;-79
2022/03/07 02:40:49;;;;;;;20.05;9.48;;;;;;;0.27;54.39;99437.78;4469378;32;33813;-81
2022/03/07 02:43:18;;;;;;;22.90;10.32;;;;;;;-0.81;57.50;99434.12;4469319;32;35931;-80
2022/03/07 02:45:47;;;;;;;21.55;10.68;;;;;;;0.18;54.74;99439.22;4455466;32;34498;-79
2022/03/07 02:48:15;;;;;;;15.55;8.95;;;;;;;0.29;54.31;99433.56;4468778;32;34584;-79
2022/03/07 02:50:45;;;;;;;20.95;9.35;;;;;;;0.76;53.25;99436.72;4469127;32;34033;-80
2022/03/07 02:53:14;;;;;;;23.30;10.77;;;;;;;-0.19;55.66;99442.25;4469445;32;35043;-80
2022/03/07 02:55:42;;;;;;;23.98;9.98;;;;;;;0.55;54.00;99450.63;4455009;32;34640;-79
2022/03/07 02:58:10;;;;;;;19.30;8.60;;;;;;;0.41;54.15;99456.12;4442660;32;33799;-79
2022/03/07 03:00:38;;;;;;;20.75;9.70;;;;;;;0.05;55.32;99447.28;4469107;32;33996;-79
2022/03/07 03:03:06;;;;;;;21.83;11.38;;;;;;;0.44;54.14;99452.00;4468942;32;35184;-80
2022/03/07 03:05:35;;;;;;;21.08;10.32;;;;;;;-0.10;55.74;99452.78;4454180;32;35200;-80
2022/03/07 03:08:03;;;;;;;27.08;10.90;;;;;;;-0.38;56.99;99450.97;4468980;32;34586;-79
2022/03/07 03:10:31;;;;;;;16.83;9.25;;;;;;;-0.46;56.70;99455.84;4468932;32;34017;-79
2022/03/07 03:13:00;;;;;;;20.17;10.35;;;;;;;-0.30;56.93;99457.25;4468813;32;34965;-79
2022/03/07 03:15:28;;;;;;;19.17;9.20;;;;;;;-0.12;55.62;99458.69;4468829;32;34306;-80
2022/03/07 03:17:56;;;;;;;23.33;11.23;;;;;;;-0.68;57.75;99461.84;4454921;32;33570;-81
2022/03/07 03:20:25;;;;;;;20.85;10.77;;;;;;;-0.82;58.25;99465.59;4454826;32;34626;-80
2022/03/07 03:22:53;;;;;;;21.20;9.50;;;;;;;-0.65;57.96;99472.19;4467895;32;35144;-80
2022/03/07 03:25:22;;;;;;;23.52;9.77;;;;;;;-0.23;56.52;99471.97;4468991;32;35195;-79
2022/03/07 03:27:51;;;;;;;28.35;10.90;;;;;;;-0.47;57.08;99473.69;4471017;32;33693;-79
2022/03/07 03:30:19;;;;;;;18.90;9.48;;;;;;;-0.33;57.41;99477.59;4470907;32;34683;-79
2022/03/07 03:32:47;;;;;;;22.35;10.40;;;;;;;0.20;55.91;99476.81;4457071;32;35421;-79
2022/03/07 03:35:16;;;;;;;20.75;9.90;;;;;;;-0.31;56.89;99468.28;4457014;32;34581;-80
2022/03/07 03:37:44;;;;;;;18.55;10.48;;;;;;;-0.39;57.28;99472.25;4470176;32;32560;-79
2022/03/07 03:40:12;;;;;;;31.65;10.80;;;;;;;-0.23;56.89;99474.53;4470882;32;34828;-80
2022/03/07 03:42:41;;;;;;;18.62;9.73;;;;;;;-0.28;56.85;99476.06;4470683;32;35259;-80
2022/03/07 03:45:10;;;;;;;26.15;11.52;;;;;;;0.37;55.31;99480.75;4455310;32;34546;-80
2022/03/07 03:47:39;;;;;;;23.75;10.50;;;;;;;0.02;55.79;99480.50;4455207;32;34405;-80
2022/03/07 03:50:10;;;;;;;20.50;10.48;;;;;;;0.25;55.16;99478.69;4455124;32;34612;-80
2022/03/07 03:52:40;;;;;;;21.85;10.45;;;;;;;-0.04;55.96;99482.84;4455210;32;35029;-80
2022/03/07 03:55:10;;;;;;;27.50;11.60;;;;;;;0.36;55.23;99473.91;4460001;32;35237;-76
2022/03/07 03:57:39;;;;;;;20.85;10.50;;;;;;;-0.18;56.57;99473.81;4455012;32;34598;-76
2022/03/07 04:00:10;;;;;;;21.20;10.60;;;;;;;-0.15;55.97;99477.34;4454964;32;34077;-74
2022/03/07 04:02:39;;;;;;;24.37;10.93;;;;;;;0.31;55.41;99475.47;4454995;32;35851;-75
2022/03/07 04:05:07;;;;;;;18.48;10.25;;;;;;;-0.28;56.35;99473.50;4454821;32;34359;-75
2022/03/07 04:07:36;;;;;;;22.00;10.52;;;;;;;-0.05;56.09;99479.41;4455006;32;33735;-75
2022/03/07 04:10:05;;;;;;;20.55;10.88;;;;;;;0.40;54.71;99470.62;4454886;32;33958;-75
2022/03/07 04:12:33;;;;;;;21.37;10.48;;;;;;;0.05;56.17;99462.66;4455295;32;35289;-76
2022/03/07 04:15:01;;;;;;;29.87;10.68;;;;;;;0.41;54.78;99464.69;4454743;32;35269;-75
2022/03/07 04:17:29;;;;;;;23.87;10.02;;;;;;;0.36;54.75;99471.34;4455050;32;34569;-75
2022/03/07 04:19:57;;;;;;;23.10;10.88;;;;;;;0.25;55.09;99472.69;4454818;32;34660;-76
2022/03/07 04:22:29;;;;;;;17.12;9.63;;;;;;;0.06;54.94;99463.53;4454902;32;34960;-75
2022/03/07 04:24:57;;;;;;;18.12;9.25;;;;;;;0.48;54.39;99469.19;4455047;32;34551;-77
2022/03/07 04:27:28;;;;;;;21.48;9.70;;;;;;;0.74;54.55;99471.66;4455271;32;33719;-77
2022/03/07 04:29:57;;;;;;;24.30;10.90;;;;;;;0.30;55.51;99474.59;4455167;32;35243;-76
2022/03/07 04:32:26;;;;;;;19.20;10.68;;;;;;;0.64;54.54;99470.53;4454815;32;34239;-77
2022/03/07 04:34:54;;;;;;;18.12;10.10;;;;;;;0.39;54.91;99474.03;4454761;32;34356;-77
2022/03/07 04:37:22;;;;;;;22.85;11.95;;;;;;;0.21;55.71;99473.41;4453894;32;34437;-77
2022/03/07 04:39:51;;;;;;;22.17;11.15;;;;;;;0.44;53.94;99477.59;4454627;32;34001;-77
2022/03/07 04:42:19;;;;;;;21.37;10.70;;;;;;;0.62;53.91;99474.75;4454677;32;35777;-77
2022/03/07 04:44:47;;;;;;;21.92;10.65;;;;;;;0.60;54.40;99472.94;4468300;32;34522;-77
2022/03/07 04:47:16;;;;;;;19.65;9.45;;;;;;;0.53;54.19;99477.00;4469581;32;33708;-76
2022/03/07 04:49:44;;;;;;;19.73;11.38;;;;;;;0.55;53.93;99475.37;4470157;32;34618;-76
2022/03/07 04:52:12;;;;;;;25.77;11.35;;;;;;;0.03;54.92;99468.56;4470261;32;35053;-76
2022/03/07 04:54:41;;;;;;;22.25;10.75;;;;;;;-0.25;55.61;99472.72;4470134;32;34656;-77
2022/03/07 04:57:09;;;;;;;24.83;13.62;;;;;;;-0.16;56.24;99472.19;4456293;32;34644;-77
2022/03/07 04:59:37;;;;;;;24.30;11.77;;;;;;;0.12;55.99;99469.72;4470038;32;33934;-77
2022/03/07 05:02:05;;;;;;;17.92;10.68;;;;;;;0.22;55.67;99475.16;4470177;32;34685;-76
2022/03/07 05:04:34;;;;;;;23.15;11.30;;;;;;;0.37;55.51;99466.28;4469252;32;34462;-77
2022/03/07 05:07:02;;;;;;;31.15;12.00;;;;;;;0.43;55.15;99468.16;4470387;32;33689;-77
2022/03/07 05:09:31;;;;;;;22.05;11.15;;;;;;;0.02;55.85;99465.13;4470057;32;33833;-77
2022/03/07 05:11:59;;;;;;;24.40;11.10;;;;;;;0.35;54.83;99467.94;4470116;32;35181;-77
2022/03/07 05:14:27;;;;;;;23.17;12.82;;;;;;;1.66;51.50;99470.88;4470193;32;34642;-77
2022/03/07 05:16:55;;;;;;;20.55;10.85;;;;;;;1.31;51.58;99474.22;4470434;32;34526;-76
2022/03/07 05:19:24;;;;;;;20.10;10.35;;;;;;;2.15;49.83;99467.03;4469910;32;33918;-77
2022/03/07 05:21:53;;;;;;;17.92;10.23;;;;;;;2.63;48.00;99474.22;4469132;32;34883;-77
2022/03/07 05:24:23;;;;;;;25.85;11.63;;;;;;;1.99;49.80;99475.19;4470045;32;34748;-77
2022/03/07 05:26:52;;;;;;;25.58;12.37;;;;;;;1.16;51.00;99478.06;4470087;32;33927;-78
2022/03/07 05:29:21;;;;;;;20.52;11.05;;;;;;;-0.02;55.43;99476.06;4469893;32;33782;-77
2022/03/07 05:31:50;;;;;;;30.15;11.73;;;;;;;0.46;55.22;99469.94;4469867;32;36037;-77
2022/03/07 05:34:18;;;;;;;22.42;11.55;;;;;;;-0.09;57.20;99475.03;4469960;32;34401;-76
2022/03/07 05:36:46;;;;;;;20.45;11.30;;;;;;;0.52;54.97;99480.41;4469225;32;34644;-77
2022/03/07 05:39:15;;;;;;;20.48;10.35;;;;;;;0.35;54.82;99477.28;4470117;32;34766;-77
2022/03/07 05:41:42;;;;;;;23.75;12.15;;;;;;;0.23;55.77;99482.91;4469743;32;35060;-77
2022/03/07 05:44:10;;;;;;;22.13;10.45;;;;;;;0.48;54.86;99488.81;4469705;32;34585;-77
2022/03/07 05:46:39;;;;;;;24.08;11.95;;;;;;;0.87;53.83;99485.75;4469609;32;33624;-78
2022/03/07 05:49:08;;;;;;;24.52;11.55;;;;;;;0.48;54.48;99481.13;4469194;32;33588;-78
2022/03/07 05:51:36;;;;;;;18.83;10.30;;;;;;;0.79;54.01;99482.94;4469428;32;35937;-78
2022/03/07 05:54:04;;;;;;;28.15;11.70;;;;;;;0.37;55.15;99483.31;4469259;32;34657;-80
2022/03/07 05:56:32;;;;;;;25.50;11.35;;;;;;;0.23;55.69;99487.12;4469917;32;33736;-79
2022/03/07 05:59:00;;;;;;;25.05;12.02;;;;;;;0.10;56.92;99486.72;4469449;32;33958;-78
2022/03/07 06:01:29;;;;;;;26.73;12.70;;;;;;;0.18;56.03;99481.88;4466283;32;34941;-77
2022/03/07 06:03:57;;;;;;;26.77;9.43;;;;;;;-0.08;57.43;99481.84;4451928;32;34692;-77
2022/03/07 06:06:26;;;;;;;26.98;13.02;;;;;;;0.09;56.91;99478.97;4453511;32;33787;-77
2022/03/07 06:08:54;;;;;;;22.30;11.05;;;;;;;0.05;56.92;99478.00;4452360;32;33971;-76
2022/03/07 06:11:23;;;;;;;22.48;11.48;;;;;;;0.59;55.77;99484.03;4453642;32;36092;-76
2022/03/07 06:13:51;;;;;;;23.65;10.43;;;;;;;-0.12;57.79;99484.28;4453522;32;35355;-76
2022/03/07 06:16:19;;;;;;;29.27;12.70;;;;;;;0.16;57.22;99486.94;4453419;32;33375;-76
2022/03/07 06:18:48;;;;;;;21.55;10.65;;;;;;;-0.11;56.58;99488.56;4453443;32;33544;-76
2022/03/07 06:21:16;;;;;;;25.98;12.18;;;;;;;0.38;56.49;99492.75;4452687;32;35003;-78
2022/03/07 06:23:44;;;;;;;21.65;10.80;;;;;;;-0.21;57.64;99490.81;4453182;32;35246;-78
2022/03/07 06:26:12;;;;;;;21.87;11.98;;;;;;;-0.29;58.05;99488.81;4453323;32;33753;-77
2022/03/07 06:28:41;;;;;;;20.30;10.95;;;;;;;-0.37;58.52;99501.34;4453663;32;33816;-76
2022/03/07 06:31:09;;;;;;;154.38;50.60;;;;;;;0.26;57.30;99497.47;4453389;32;35105;-79
2022/03/07 06:33:38;;;;;;;72.90;30.98;;;;;;;0.25;56.87;99500.84;4452991;32;34447;-79
2022/03/07 06:36:06;;;;;;;211.00;76.45;;;;;;;-0.19;58.12;99501.09;4453251;32;34573;-83
2022/03/07 06:38:34;;;;;;;45.25;19.25;;;;;;;0.05;57.86;99506.19;4453514;32;34650;-78
2022/03/07 06:41:03;;;;;;;66.32;30.85;;;;;;;0.47;56.42;99507.56;4453781;32;36059;-81
2022/03/07 06:43:31;;;;;;;32.72;13.23;;;;;;;0.88;55.11;99506.31;4458802;32;35214;-83
2022/03/07 06:46:00;;;;;;;25.33;12.10;;;;;;;1.02;55.13;99509.28;4454639;32;34649;-80
2022/03/07 06:48:28;;;;;;;28.52;12.45;;;;;;;1.63;53.92;99497.34;4455301;32;33965;-81
2022/03/07 06:50:56;;;;;;;22.95;11.88;;;;;;;1.88;52.68;99504.00;4469363;32;35088;-81
2022/03/07 06:53:24;;;;;;;19.90;10.23;;;;;;;1.27;54.06;99505.75;4469144;32;34340;-82
2022/03/07 06:55:53;;;;;;;24.50;11.77;;;;;;;1.09;54.22;99508.63;4469000;32;34525;-82
2022/03/07 06:58:21;;;;;;;24.75;12.13;;;;;;;0.97;54.12;99507.41;4462939;32;198195;-82
2022/03/07 07:00:49;;;;;;;29.52;11.70;;;;;;;1.11;54.34;99513.81;4469595;32;35052;-83
2022/03/07 07:03:18;;;;;;;29.10;12.57;;;;;;;1.17;53.64;99508.88;4470466;32;34402;-82
2022/03/07 07:05:47;;;;;;;25.50;11.68;;;;;;;1.01;55.22;99511.81;4457079;32;33982;-81
2022/03/07 07:08:15;;;;;;;21.33;12.77;;;;;;;1.83;53.30;99512.44;4471201;32;33854;-82
2022/03/07 07:10:43;;;;;;;26.62;11.93;;;;;;;1.05;53.85;99516.19;4470991;32;35044;-82
2022/03/07 07:13:14;;;;;;;27.50;11.02;;;;;;;0.91;54.29;99516.62;4470971;32;34170;-81
2022/03/07 07:15:42;;;;;;;25.70;11.90;;;;;;;1.07;54.42;99510.28;4471189;32;33838;-83
2022/03/07 07:18:11;;;;;;;29.87;13.10;;;;;;;0.45;56.24;99516.91;4470885;32;34749;-82
2022/03/07 07:20:39;;;;;;;29.10;12.00;;;;;;;0.57;56.04;99518.16;4470254;32;35143;-82
2022/03/07 07:23:06;;;;;;;29.50;12.80;;;;;;;1.14;54.57;99524.16;4471216;32;35378;-83
2022/03/07 07:25:35;;;;;;;20.02;11.10;;;;;;;1.41;54.24;99512.97;4470994;32;34097;-82
2022/03/07 07:28:03;;;;;;;27.42;12.85;;;;;;;1.08;54.55;99521.44;4471020;32;34078;-83
2022/03/07 07:30:31;;;;;;;23.27;12.27;;;;;;;1.65;53.46;99523.94;4470896;32;34579;-83
2022/03/07 07:32:59;;;;;;;30.45;12.95;;;;;;;1.46;53.82;99521.66;4470980;32;34551;-83
2022/03/07 07:35:27;;;;;;;28.50;13.85;;;;;;;0.84;54.60;99530.09;4470855;32;34624;-81
2022/03/07 07:37:55;;;;;;;27.15;12.60;;;;;;;1.77;52.71;99527.69;4470104;32;33900;-83
2022/03/07 07:40:23;;;;;;;33.85;15.43;;;;;;;1.71;52.23;99541.19;4470742;32;35905;-81
2022/03/07 07:42:51;;;;;;;21.85;11.93;;;;;;;1.28;54.45;99547.66;4470810;32;34616;-82
2022/03/07 07:45:19;;;;;;;63.03;24.45;;;;;;;2.15;51.98;99540.66;4470961;32;33780;-82
2022/03/07 07:47:48;;;;;;;25.85;13.02;;;;;;;2.49;51.30;99542.41;4470974;32;34669;-81
2022/03/07 07:50:16;;;;;;;31.92;13.77;;;;;;;1.67;52.59;99553.06;4470812;32;35091;-82
2022/03/07 07:52:44;;;;;;;23.30;11.63;;;;;;;1.93;51.83;99540.09;4470864;32;34575;-83
2022/03/07 07:55:13;;;;;;;31.48;18.35;;;;;;;2.18;51.48;99540.75;4470707;32;34546;-83
2022/03/07 07:57:41;;;;;;;25.77;14.98;;;;;;;1.97;52.17;99547.06;4468442;32;33791;-81
2022/03/07 08:00:10;;;;;;;33.03;16.48;;;;;;;1.60;52.92;99560.56;4456872;32;35837;-81
2022/03/07 08:02:50;;;;;;;;;;;;;;;2.81;50.37;99555.19;4443686;32;34504;-82
2022/03/07 08:05:18;;;;;;;31.05;17.50;;;;;;;2.70;49.69;99559.19;4454885;32;34386;-82
2022/03/07 08:07:47;;;;;;;26.20;14.13;;;;;;;2.58;51.42;99572.63;4454867;32;33910;-80
2022/03/07 08:10:17;;;;;;;28.48;12.50;;;;;;;2.25;51.18;99578.62;4455144;32;34643;-80
2022/03/07 08:12:46;;;;;;;23.00;11.68;;;;;;;2.62;49.87;99577.00;4457476;32;35150;-80
2022/03/07 08:15:19;;;;;;;27.62;12.70;;;;;;;2.45;50.70;99582.59;4470866;32;33923;-82
2022/03/07 08:17:52;;;;;;;25.37;12.20;;;;;;;2.26;51.26;99577.81;4465877;32;34610;-82
2022/03/07 08:20:22;;;;;;;21.33;11.40;;;;;;;1.63;53.16;99584.63;4454532;32;34828;-81
2022/03/07 08:22:51;;;;;;;24.67;12.80;;;;;;;2.43;51.06;99568.81;4428403;32;33779;-83
2022/03/07 08:25:20;;;;;;;26.23;11.60;;;;;;;2.09;51.14;99578.19;4455262;32;33786;-83
2022/03/07 08:27:49;;;;;;;25.62;11.27;;;;;;;2.17;51.86;99574.97;4444506;32;33462;-82
2022/03/07 08:30:19;;;;;;;24.20;12.05;;;;;;;1.83;52.21;99579.19;4470755;32;34835;-79
2022/03/07 08:32:47;;;;;;;18.30;10.82;;;;;;;1.42;53.87;99577.16;4451894;32;34403;-80
2022/03/07 08:35:16;;;;;;;27.50;11.93;;;;;;;2.65;50.45;99564.22;4454403;32;33783;-80
2022/03/07 08:37:47;;;;;;;24.90;11.25;;;;;;;2.25;51.14;99563.22;4457520;32;33906;-83
2022/03/07 08:40:16;;;;;;;28.55;11.70;;;;;;;1.97;51.80;99557.31;4470588;32;34322;-82
2022/03/07 08:42:45;;;;;;;25.52;12.77;;;;;;;2.57;50.50;99545.16;4466566;32;34051;-82
2022/03/07 08:45:22;;;;;;;28.70;12.10;;;;;;;2.78;49.63;99548.25;4455084;32;34519;-82
2022/03/07 08:48:10;;;;;;;27.45;11.50;;;;;;;2.53;50.11;99549.34;4454584;32;33964;-80
2022/03/07 08:50:38;;;;;;;25.70;10.68;;;;;;;3.83;47.47;99540.25;4449107;32;35839;-80
2022/03/07 08:53:07;;;;;;;18.48;9.48;;;;;;;3.14;48.55;99549.97;4464415;32;34366;-81
2022/03/07 08:55:35;;;;;;;24.87;11.32;;;;;;;3.63;48.95;99544.09;4454952;32;33583;-80
2022/03/07 08:58:03;;;;;;;18.95;9.35;;;;;;;3.78;47.66;99555.59;4454562;32;34893;-82
2022/03/07 09:00:31;;;;;;;23.87;12.07;;;;;;;4.11;46.73;99543.31;4454465;32;35039;-80
2022/03/07 09:03:00;;;;;;;22.67;12.30;;;;;;;3.58;48.14;99552.63;4440379;32;34550;-82
2022/03/07 09:05:28;;;;;;;23.30;11.12;;;;;;;4.10;46.87;99557.91;4454348;32;34089;-79
2022/03/07 09:07:56;;;;;;;20.77;10.60;;;;;;;2.89;49.83;99563.06;4454393;32;34150;-79
2022/03/07 09:10:25;;;;;;;30.62;12.00;;;;;;;3.22;48.53;99561.25;4454789;32;34933;-83
2022/03/07 09:12:54;;;;;;;22.10;11.90;;;;;;;3.01;48.51;99558.22;4454089;32;34494;-80
2022/03/07 09:15:22;;;;;;;22.13;10.50;;;;;;;3.44;47.87;99548.00;4454607;32;33795;-82
2022/03/07 09:17:50;;;;;;;18.95;10.23;;;;;;;3.76;47.62;99540.97;4454396;32;33605;-83
2022/03/07 09:20:19;;;;;;;25.52;12.98;;;;;;;4.20;46.15;99542.63;4454164;32;35974;-79
2022/03/07 09:22:47;;;;;;;25.70;12.43;;;;;;;3.98;47.78;99548.25;4451991;32;34410;-81
2022/03/07 09:25:16;;;;;;;27.80;14.90;;;;;;;3.08;48.22;99547.22;4469908;32;33147;-83
2022/03/07 09:27:45;;;;;;;29.42;13.05;;;;;;;3.78;47.33;99540.12;4455048;32;34737;-83
2022/03/07 09:30:14;;;;;;;27.42;12.15;;;;;;;2.80;49.22;99544.00;4470047;32;34721;-82
2022/03/07 09:32:42;;;;;;;23.17;10.77;;;;;;;3.13;48.77;99550.78;4454922;32;35129;-82
2022/03/07 09:35:10;;;;;;;22.33;10.85;;;;;;;3.98;47.68;99539.66;4470097;32;33944;-81
2022/03/07 09:37:38;;;;;;;27.48;13.18;;;;;;;3.23;49.14;99544.16;4460773;32;33747;-81
2022/03/07 09:40:08;;;;;;;22.95;10.98;;;;;;;2.86;49.69;99551.03;4446279;32;34937;-82
2022/03/07 09:42:36;;;;;;;27.45;12.35;;;;;;;3.35;48.15;99549.56;4447583;32;34423;-81
2022/03/07 09:45:09;;;;;;;20.95;9.63;;;;;;;3.40;48.31;99547.06;4469500;32;34240;-81
2022/03/07 09:47:39;;;;;;;26.80;11.48;;;;;;;2.98;49.74;99547.84;4465040;32;33903;-81
2022/03/07 09:50:11;;;;;;;21.12;11.55;;;;;;;3.46;48.85;99546.31;4454481;32;34920;-81
2022/03/07 09:52:42;;;;;;;24.65;12.60;;;;;;;3.44;48.75;99543.72;4447241;32;34141;-81
2022/03/07 09:55:13;;;;;;;24.52;10.07;;;;;;;3.32;48.87;99543.44;4470131;32;34781;-81
2022/03/07 09:57:43;;;;;;;23.65;10.82;;;;;;;3.47;48.63;99538.63;4458655;32;33899;-82
2022/03/07 10:00:11;;;;;;;24.75;11.15;;;;;;;3.28;49.41;99546.81;4453829;32;35192;-81
2022/03/07 10:02:39;;;;;;;20.15;11.45;;;;;;;2.99;49.73;99547.03;4464734;32;35210;-81
2022/03/07 10:05:08;;;;;;;22.65;11.27;;;;;;;3.43;48.49;99544.56;4469651;32;34536;-82
2022/03/07 10:07:45;;;;;;;22.75;11.10;;;;;;;3.33;48.48;99540.06;4458308;32;34910;-81
2022/03/07 10:10:14;;;;;;;25.48;11.50;;;;;;;3.30;49.82;99542.56;4454331;32;35335;-82
2022/03/07 10:12:46;;;;;;;25.83;12.25;;;;;;;3.73;48.52;99540.88;4439762;32;34486;-82
2022/03/07 10:15:20;;;;;;;18.17;9.48;;;;;;;3.40;49.04;99539.34;4454283;32;33751;-82
2022/03/07 10:17:53;;;;;;;22.65;11.77;;;;;;;4.16;47.54;99533.97;4454203;32;33818;-81
2022/03/07 10:20:24;;;;;;;24.20;11.60;;;;;;;4.08;47.67;99538.13;4440168;32;35025;-82
2022/03/07 10:22:55;;;;;;;26.77;12.15;;;;;;;3.88;47.03;99535.16;4439518;32;34501;-81
2022/03/07 10:25:26;;;;;;;24.33;11.98;;;;;;;2.58;49.72;99534.06;4454950;32;33590;-79
2022/03/07 10:28:01;;;;;;;25.08;12.07;;;;;;;3.03;48.95;99535.97;4458137;32;33702;-78
2022/03/07 10:30:31;;;;;;;30.25;13.57;;;;;;;2.89;48.63;99537.34;4460949;32;34833;-82
2022/03/07 10:33:06;;;;;;;27.55;8.93;;;;;;;2.82;48.41;99536.34;4457553;32;34170;-80
2022/03/07 10:35:47;;;;;;;27.33;13.30;;;;;;;3.63;47.11;99531.22;4440401;32;33552;-81
2022/03/07 10:38:18;;;;;;;29.85;12.82;;;;;;;3.39;47.47;99533.34;4441471;32;34242;-81
2022/03/07 10:40:53;;;;;;;26.45;12.70;;;;;;;3.18;47.17;99538.88;4455723;32;35947;-80
2022/03/07 10:43:24;;;;;;;30.00;14.30;;;;;;;2.79;48.24;99529.44;4468367;32;34336;-80
2022/03/07 10:45:59;;;;;;;26.45;11.35;;;;;;;2.47;48.83;99524.38;4469958;32;33183;-81
2022/03/07 10:48:38;;;;;;;26.80;12.15;;;;;;;2.86;48.56;99525.31;4456463;32;33777;-80
2022/03/07 10:51:15;;;;;;;28.95;13.77;;;;;;;2.79;49.00;99521.72;4455868;32;35884;-79
2022/03/07 10:53:45;;;;;;;26.40;14.02;;;;;;;2.44;48.86;99513.16;4442239;32;34985;-79
2022/03/07 10:56:16;;;;;;;16.80;9.57;;;;;;;2.64;49.25;99511.91;4455496;32;33026;-79
2022/03/07 10:58:49;;;;;;;30.48;13.35;;;;;;;3.02;48.37;99509.38;4455118;32;34507;-79
2022/03/07 11:01:32;;;;;;;28.17;15.02;;;;;;;2.94;49.14;99504.87;4455439;32;34909;-81
2022/03/07 11:04:01;;;;;;;25.15;12.77;;;;;;;2.81;49.43;99502.03;4455105;32;34330;-83
2022/03/07 11:06:29;;;;;;;78.82;37.25;;;;;;;2.79;48.94;99496.00;4454991;32;34467;-79
2022/03/07 11:08:57;;;;;;;57.53;26.23;;;;;;;3.07;48.14;99491.47;4454566;32;33961;-80
2022/03/07 11:11:25;;;;;;;38.85;20.05;;;;;;;3.22;48.24;99489.22;4455473;32;35016;-81
2022/03/07 11:13:55;;;;;;;32.90;16.58;;;;;;;3.76;47.59;99486.88;4441769;32;34600;-81
2022/03/07 11:16:27;;;;;;;33.75;15.10;;;;;;;4.08;46.73;99486.59;4455367;32;34940;-80
2022/03/07 11:18:56;;;;;;;24.85;10.40;;;;;;;3.18;48.36;99484.84;4456831;32;32474;-80
2022/03/07 11:21:30;;;;;;;29.98;14.75;;;;;;;3.87;46.49;99475.06;4455865;32;34756;-79
2022/03/07 11:23:58;;;;;;;29.63;15.07;;;;;;;3.64;46.89;99468.63;4455282;32;34094;-80
2022/03/07 11:26:27;;;;;;;33.00;15.57;;;;;;;2.95;48.42;99466.34;4454024;32;34508;-81
2022/03/07 11:28:57;;;;;;;24.95;11.73;;;;;;;3.17;47.92;99454.78;4447378;32;31985;-82
2022/03/07 11:31:28;;;;;;;27.40;13.77;;;;;;;3.34;47.27;99459.44;4457258;32;34901;-83
2022/03/07 11:33:57;;;;;;;30.92;13.88;;;;;;;3.73;46.24;99458.47;4456508;32;33309;-82
2022/03/07 11:36:27;;;;;;;25.17;13.38;;;;;;;3.17;47.36;99462.50;4468376;32;33414;-84